Weather History for KJZI - February, 2014

Change the Weather History Date:

Monday, February 24, 2014

  Actual Average (KCHS) Record (KCHS)
Temperature  
Mean Temperature 60 °F 54 °F  
Max Temperature 69 °F 65 °F 81 °F (1930)
Min Temperature 51 °F 42 °F 21 °F (1939)
Degree Days  
Heating Degree Days 5 12  
Month to date heating degree days 333  
Since 1 July heating degree days 1592  
Cooling Degree Days 0 0  
Month to date cooling degree days 0  
Year to date cooling degree days 2  
Growing Degree Days 10 (Base 50)    
Moisture  
Dew Point 59 °F    
Average Humidity 100    
Maximum Humidity 100    
Minimum Humidity 100    
Precipitation  
Precipitation 0.00 in 0.11 in 2.25 in (1963)
Month to date precipitation 2.54  
Year to date precipitation 6.25  
Sea Level Pressure  
Sea Level Pressure 30.03 in    
Wind  
Wind Speed 5 mph (WSW)    
Max Wind Speed 15 mph    
Max Gust Speed 20 mph    
Visibility 9 miles    
Events      
T = Trace of Precipitation, MM = Missing Value Source: NWS Daily Summary

Daily Weather History Graph

Daily Weather History Graph

Search for Another Location

Airport or City:

Trip Planner

Search our weather history database for the weather conditions in past years. The results will help you decide how hot, cold, wet, or windy it might be!

Date:

Astronomy

Feb. 24, 2014 Rise Set
Actual Time 6:53 AM EST 6:13 PM EST
Civil Twilight 6:28 AM EST 6:38 PM EST
Nautical Twilight 6:00 AM EST 7:06 PM EST
Astronomical Twilight 5:31 AM EST 7:35 PM EST
Moon 2:40 AM EST (2/24) 1:22 PM EST (2/24)
Length of Visible Light 12h 09m
Length of Day
11h 19m
Waning Crescent, 28% of the Moon is Illuminated
Feb 24
Waning Crescent
Mar 1
New
Mar 8
First Quarter
Mar 16
Full
Mar 23
Last Quarter

Hourly Weather History & Observations

Time (EST) Temp. Dew Point Humidity Pressure Visibility Wind Dir Wind Speed Gust Speed Precip Events Conditions
12:15 AM 57.2 °F 57.2 °F 100% 29.97 in 10.0 mi Calm Calm - 0.00 in   Clear
12:35 AM 57.2 °F 57.2 °F 100% 29.97 in 8.0 mi SW 4.6 mph - 0.00 in   Clear
12:55 AM 57.2 °F 57.2 °F 100% 29.96 in 8.0 mi SW 3.5 mph - 0.00 in   Scattered Clouds
1:15 AM 57.2 °F 57.2 °F 100% 29.97 in 8.0 mi WSW 3.5 mph - 0.00 in   Overcast
1:35 AM 57.2 °F 57.2 °F 100% 29.96 in 8.0 mi SW 3.5 mph - 0.00 in   Overcast
1:55 AM 57.2 °F 57.2 °F 100% 29.95 in 7.0 mi Calm Calm - 0.00 in   Partly Cloudy
2:15 AM 57.2 °F 57.2 °F 100% 29.95 in 7.0 mi Calm Calm - 0.00 in   Clear
2:35 AM 57.2 °F 57.2 °F 100% 29.95 in 6.0 mi Calm Calm - 0.00 in   Clear
2:55 AM 57.2 °F 57.2 °F 100% 29.94 in 5.0 mi SW 5.8 mph - 0.00 in   Clear
3:15 AM 57.2 °F 57.2 °F 100% 29.95 in 5.0 mi SW 4.6 mph - 0.00 in   Clear
3:35 AM 55.4 °F 55.4 °F 100% 29.95 in 5.0 mi WSW 4.6 mph - 0.00 in   Scattered Clouds
3:55 AM 57.2 °F 57.2 °F 100% 29.94 in 6.0 mi West 8.1 mph - 0.00 in   Mostly Cloudy
4:15 AM 59.0 °F 59.0 °F 100% 29.95 in 8.0 mi West 8.1 mph - 0.00 in   Overcast
4:35 AM 59.0 °F 59.0 °F 100% 29.95 in 8.0 mi WNW 9.2 mph - 0.00 in   Overcast
4:55 AM 60.8 °F 60.8 °F 100% 29.96 in 9.0 mi WNW 8.1 mph - 0.00 in   Overcast
5:15 AM 60.8 °F 60.8 °F 100% 29.96 in 10.0 mi WNW 9.2 mph - 0.00 in   Overcast
5:35 AM 60.8 °F 60.8 °F 100% 29.97 in 10.0 mi West 9.2 mph 18.4 mph 0.00 in   Overcast
5:55 AM 60.8 °F 60.8 °F 100% 29.98 in 10.0 mi West 5.8 mph - 0.00 in   Overcast
6:15 AM 59.0 °F 59.0 °F 100% 29.98 in 10.0 mi West 3.5 mph - 0.00 in   Scattered Clouds
6:35 AM 57.2 °F 57.2 °F 100% 29.99 in 10.0 mi Calm Calm - 0.00 in   Clear
6:55 AM 57.2 °F 57.2 °F 100% 29.99 in 3.0 mi Calm Calm - 0.00 in   Clear
7:15 AM 57.2 °F 57.2 °F 100% 30.00 in 0.8 mi Calm Calm - 0.00 in   Mist
7:35 AM 57.2 °F 57.2 °F 100% 30.01 in 3.0 mi Calm Calm - 0.00 in   Clear
7:55 AM 59.0 °F 59.0 °F 100% 30.02 in 7.0 mi NW 8.1 mph - 0.00 in   Partly Cloudy
8:15 AM 60.8 °F 60.8 °F 100% 30.03 in 10.0 mi NW 9.2 mph - 0.00 in   Partly Cloudy
8:35 AM 62.6 °F 62.6 °F 100% 30.03 in 10.0 mi NW 10.4 mph 16.1 mph 0.00 in   Scattered Clouds
8:55 AM 62.6 °F 62.6 °F 100% 30.03 in 10.0 mi NW 12.7 mph 17.3 mph 0.00 in   Mostly Cloudy
9:15 AM 62.6 °F 62.6 °F 100% 30.04 in 10.0 mi NNW 12.7 mph 18.4 mph 0.00 in   Scattered Clouds
9:35 AM 62.6 °F 62.6 °F 100% 30.04 in 10.0 mi NNW 12.7 mph 19.6 mph 0.00 in   Mostly Cloudy
9:55 AM 64.4 °F 64.4 °F 100% 30.05 in 10.0 mi North 9.2 mph - 0.00 in   Partly Cloudy
10:15 AM 64.4 °F 64.4 °F 100% 30.06 in 10.0 mi North 11.5 mph 19.6 mph 0.00 in   Clear
10:35 AM 64.4 °F 64.4 °F 100% 30.06 in 10.0 mi North 11.5 mph 18.4 mph 0.00 in   Clear
10:55 AM 64.4 °F 64.4 °F 100% 30.07 in 10.0 mi North 15.0 mph 19.6 mph 0.00 in   Clear
11:15 AM 64.4 °F 64.4 °F 100% 30.07 in 10.0 mi North 10.4 mph - 0.00 in   Clear
11:35 AM 66.2 °F 66.2 °F 100% 30.06 in 10.0 mi North 12.7 mph 17.3 mph 0.00 in   Clear
11:55 AM 66.2 °F 66.2 °F 100% 30.06 in 10.0 mi NNE 9.2 mph - 0.00 in   Clear
12:15 PM 66.2 °F 66.2 °F 100% 30.05 in 10.0 mi ENE 10.4 mph - 0.00 in   Clear
12:35 PM 69.8 °F 69.8 °F 100% 30.05 in 10.0 mi NW 6.9 mph - 0.00 in   Clear
12:55 PM 69.8 °F 69.8 °F 100% 30.04 in 10.0 mi North 3.5 mph - 0.00 in   Clear
1:15 PM 66.2 °F 66.2 °F 100% 30.04 in 10.0 mi ESE 9.2 mph - 0.00 in   Clear
1:35 PM 66.2 °F 66.2 °F 100% 30.03 in 10.0 mi ESE 9.2 mph - 0.00 in   Clear
1:55 PM 66.2 °F 66.2 °F 100% 30.02 in 10.0 mi SE 10.4 mph - 0.00 in   Clear
2:15 PM 64.4 °F 64.4 °F 100% 30.02 in 10.0 mi SSE 8.1 mph - 0.00 in   Clear
2:35 PM 64.4 °F 64.4 °F 100% 30.02 in 10.0 mi SE 10.4 mph - 0.00 in   Clear
2:55 PM 64.4 °F 64.4 °F 100% 30.02 in 10.0 mi SSE 8.1 mph - 0.00 in   Clear
3:15 PM 64.4 °F 64.4 °F 100% 30.02 in 10.0 mi SE 8.1 mph - 0.00 in   Clear
3:35 PM 62.6 °F 62.6 °F 100% 30.02 in 10.0 mi SSE 5.8 mph - 0.00 in   Clear
3:55 PM 62.6 °F 62.6 °F 100% 30.03 in 10.0 mi SSE 8.1 mph - 0.00 in   Clear
4:15 PM 62.6 °F 62.6 °F 100% 30.03 in 10.0 mi SSE 5.8 mph - 0.00 in   Clear
4:35 PM 62.6 °F 62.6 °F 100% 30.03 in 10.0 mi South 8.1 mph - 0.00 in   Clear
4:55 PM 62.6 °F 62.6 °F 100% 30.04 in 10.0 mi South 6.9 mph - 0.00 in   Clear
5:15 PM 62.6 °F 62.6 °F 100% 30.05 in 10.0 mi SSE 4.6 mph - 0.00 in   Clear
5:35 PM 60.8 °F 60.8 °F 100% 30.05 in 10.0 mi SSE 5.8 mph - 0.00 in   Clear
5:55 PM 60.8 °F 60.8 °F 100% 30.06 in 10.0 mi SE 3.5 mph - 0.00 in   Clear
6:15 PM 57.2 °F 57.2 °F 100% 30.07 in 10.0 mi SE 3.5 mph - 0.00 in   Clear
6:35 PM 57.2 °F 57.2 °F 100% 30.08 in 10.0 mi Calm Calm - 0.00 in   Clear
6:55 PM 55.4 °F 55.4 °F 100% 30.09 in 10.0 mi Calm Calm - 0.00 in   Clear
7:15 PM 55.4 °F 55.4 °F 100% 30.09 in 10.0 mi Calm Calm - 0.00 in   Clear
7:35 PM 53.6 °F 53.6 °F 100% 30.10 in 10.0 mi Calm Calm - 0.00 in   Clear
7:55 PM 51.8 °F 51.8 °F 100% 30.11 in 10.0 mi Calm Calm - 0.00 in   Clear
8:15 PM 53.6 °F 53.6 °F 100% 30.11 in 10.0 mi Calm Calm - 0.00 in   Clear
8:35 PM 51.8 °F 51.8 °F 100% 30.11 in 10.0 mi Calm Calm - 0.00 in   Clear
8:55 PM 51.8 °F 51.8 °F 100% 30.11 in 10.0 mi Calm Calm - 0.00 in   Clear
9:15 PM 51.8 °F 51.8 °F 100% 30.12 in 10.0 mi Calm Calm - 0.00 in   Clear
9:35 PM 51.8 °F 51.8 °F 100% 30.13 in 10.0 mi Calm Calm - 0.00 in   Clear
9:55 PM 51.8 °F 51.8 °F 100% 30.13 in 10.0 mi Calm Calm - 0.00 in   Clear
10:15 PM 51.8 °F 51.8 °F 100% 30.13 in 10.0 mi Calm Calm - 0.00 in   Clear
10:35 PM 51.8 °F 51.8 °F 100% 30.12 in 10.0 mi Calm Calm - 0.00 in   Clear
10:55 PM 51.8 °F 51.8 °F 100% 30.12 in 10.0 mi Calm Calm - 0.00 in   Clear
11:15 PM 51.8 °F 51.8 °F 100% 30.12 in 10.0 mi Calm Calm - 0.00 in   Clear
11:35 PM 51.8 °F 51.8 °F 100% 30.10 in 10.0 mi Calm Calm - 0.00 in   Clear
11:55 PM 53.6 °F 53.6 °F 100% 30.10 in 10.0 mi Calm Calm - 0.00 in   Clear